Time;durP1;ratioP1;P1;durP2;ratioP2;P2;SDS_P1;SDS_P2;PMS_P1;PMS_P2;Temp;Humidity;BMP_temperature;BMP_pressure;BME280_temperature;BME280_humidity;BME280_pressure;Samples;Min_cycle;Max_cycle;Signal;HPM_P1;HPM_P2
2022/06/22 00:01:46;;;;;;;0.40;0.20;;;22.30;99.90;;;;;;5013799;28;20389;-72
2022/06/22 00:04:20;;;;;;;0.90;0.70;;;22.20;99.90;;;;;;4999393;28;20414;-71
2022/06/22 00:06:57;;;;;;;0.75;0.75;;;22.20;99.90;;;;;;4993821;28;20401;-71
2022/06/22 00:09:33;;;;;;;1.90;1.20;;;22.10;99.90;;;;;;4993910;28;20774;-71
2022/06/22 00:11:59;;;;;;;0.40;0.30;;;22.20;99.90;;;;;;4995775;28;20403;-71
2022/06/22 00:14:33;;;;;;;0.40;0.30;;;22.10;99.90;;;;;;5011430;28;20389;-72
2022/06/22 00:16:58;;;;;;;1.00;0.90;;;22.10;99.90;;;;;;5013279;28;20397;-71
2022/06/22 00:19:39;;;;;;;0.70;0.60;;;22.00;99.90;;;;;;5012735;28;20428;-71
2022/06/22 00:22:05;;;;;;;0.40;0.30;;;22.00;99.90;;;;;;5012472;28;20384;-71
2022/06/22 00:24:39;;;;;;;0.40;0.20;;;22.00;99.90;;;;;;5012694;28;20389;-72
2022/06/22 00:27:13;;;;;;;1.00;0.70;;;21.90;99.90;;;;;;5013341;28;20401;-71
2022/06/22 00:29:39;;;;;;;0.90;0.90;;;21.90;99.90;;;;;;5012263;28;20413;-71
2022/06/22 00:32:26;;;;;;;0.40;0.30;;;22.00;99.90;;;;;;5012758;28;20431;-71
2022/06/22 00:34:52;;;;;;;0.40;0.20;;;22.00;99.90;;;;;;5013400;28;20409;-71
2022/06/22 00:37:19;;;;;;;0.40;0.20;;;22.00;99.90;;;;;;5012789;28;20401;-71
2022/06/22 00:39:50;;;;;;;0.60;0.60;;;21.90;99.90;;;;;;5011507;28;20548;-71
2022/06/22 00:42:43;;;;;;;0.50;0.40;;;21.80;99.90;;;;;;5012763;28;20888;-72
2022/06/22 00:45:25;;;;;;;0.40;0.30;;;21.80;99.90;;;;;;5013075;28;20391;-71
2022/06/22 00:47:59;;;;;;;2.20;1.30;;;21.70;99.90;;;;;;5012471;28;20503;-71
2022/06/22 00:50:38;;;;;;;0.40;0.25;;;21.70;99.90;;;;;;5012816;28;20416;-71
2022/06/22 00:53:20;;;;;;;0.40;0.30;;;21.80;99.90;;;;;;5012519;28;20408;-71
2022/06/22 00:56:07;;;;;;;0.40;0.20;;;21.80;99.90;;;;;;5011809;28;20396;-72
2022/06/22 00:58:56;;;;;;;0.40;0.20;;;21.70;99.90;;;;;;5012219;28;20389;-71
2022/06/22 01:01:44;;;;;;;0.50;0.40;;;21.70;99.90;;;;;;5012329;28;20412;-71
2022/06/22 01:04:29;;;;;;;0.40;0.28;;;21.70;99.90;;;;;;5012969;28;20401;-71
2022/06/22 01:07:18;;;;;;;0.70;0.70;;;21.70;99.90;;;;;;5011891;28;20432;-71
2022/06/22 01:09:55;;;;;;;1.20;1.10;;;21.60;99.90;;;;;;5011300;28;20420;-71
2022/06/22 01:12:41;;;;;;;0.65;0.65;;;21.70;99.90;;;;;;5012593;28;20587;-71
2022/06/22 01:15:25;;;;;;;0.40;0.20;;;21.70;99.90;;;;;;4974786;28;20393;-71
2022/06/22 01:18:12;;;;;;;0.40;0.30;;;21.70;99.90;;;;;;5011650;28;20393;-71
2022/06/22 01:20:53;;;;;;;0.40;0.20;;;21.60;99.90;;;;;;5011155;28;21009;-72
2022/06/22 01:23:38;;;;;;;0.40;0.30;;;21.60;99.90;;;;;;5010526;28;20777;-71
2022/06/22 01:26:41;;;;;;;1.00;0.80;;;21.60;99.90;;;;;;5012422;28;20896;-71
2022/06/22 01:29:24;;;;;;;1.40;0.90;;;21.50;99.90;;;;;;4992741;28;20390;-71
2022/06/22 01:32:00;;;;;;;0.40;0.20;;;21.50;99.90;;;;;;4996625;28;20393;-71
2022/06/22 01:34:33;;;;;;;0.40;0.30;;;21.50;99.90;;;;;;5012209;28;20405;-71
2022/06/22 01:37:04;;;;;;;0.40;0.20;;;21.50;99.90;;;;;;5012042;28;20393;-71
2022/06/22 01:39:30;;;;;;;0.40;0.30;;;21.50;99.90;;;;;;5011001;28;20824;-71
2022/06/22 01:42:20;;;;;;;0.40;0.30;;;21.50;99.90;;;;;;5010266;28;20492;-71
2022/06/22 01:44:54;;;;;;;0.40;0.30;;;21.50;99.90;;;;;;5011359;28;20431;-71
2022/06/22 01:47:24;;;;;;;0.50;0.40;;;21.50;99.90;;;;;;5012274;28;20769;-71
2022/06/22 01:50:13;;;;;;;2.00;1.40;;;21.50;99.90;;;;;;5010787;28;20495;-71
2022/06/22 01:53:01;;;;;;;0.50;0.50;;;21.40;99.90;;;;;;5010642;28;20903;-71
2022/06/22 01:55:26;;;;;;;0.50;0.50;;;21.30;99.90;;;;;;5012120;28;20794;-71
2022/06/22 01:58:00;;;;;;;0.40;0.20;;;21.30;99.90;;;;;;5008111;28;20414;-71
2022/06/22 02:00:26;;;;;;;0.50;0.40;;;21.40;99.90;;;;;;4995878;28;20421;-71
2022/06/22 02:03:13;;;;;;;0.50;0.50;;;21.30;99.90;;;;;;5010705;28;20436;-71
2022/06/22 02:05:42;;;;;;;0.40;0.30;;;21.40;99.90;;;;;;5009438;28;20492;-71
2022/06/22 02:08:15;;;;;;;0.40;0.20;;;21.20;99.90;;;;;;5011238;28;20397;-71
2022/06/22 02:11:10;;;;;;;0.40;0.20;;;21.20;99.90;;;;;;5010690;28;20421;-71
2022/06/22 02:13:48;;;;;;;0.40;0.30;;;21.20;99.90;;;;;;5004787;28;20405;-72
2022/06/22 02:16:35;;;;;;;0.90;0.90;;;21.20;99.90;;;;;;5011080;28;20893;-71
2022/06/22 02:19:00;;;;;;;0.40;0.38;;;21.20;99.90;;;;;;5009328;28;20451;-71
2022/06/22 02:21:42;;;;;;;0.60;0.60;;;21.30;99.90;;;;;;5003667;28;20822;-72
2022/06/22 02:24:11;;;;;;;0.40;0.30;;;21.30;99.90;;;;;;5011603;28;20854;-71
2022/06/22 02:27:05;;;;;;;0.40;0.30;;;21.30;99.90;;;;;;5010359;28;20428;-72
2022/06/22 02:29:44;;;;;;;0.40;0.30;;;21.30;99.90;;;;;;5011322;28;20422;-71
2022/06/22 02:32:28;;;;;;;0.40;0.30;;;21.20;99.90;;;;;;5010721;28;20950;-71
2022/06/22 02:34:55;;;;;;;0.40;0.20;;;21.10;99.90;;;;;;4992542;28;20419;-71
2022/06/22 02:37:26;;;;;;;0.60;0.60;;;21.20;99.90;;;;;;5010838;28;20869;-71
2022/06/22 02:39:55;;;;;;;0.40;0.25;;;21.20;99.90;;;;;;5010208;28;20475;-71
2022/06/22 02:45:08;;;;;;;0.40;0.30;;;21.10;99.90;;;;;;5010361;28;20829;-71
2022/06/22 02:47:58;;;;;;;0.40;0.30;;;21.10;99.90;;;;;;5010228;28;20392;-72
2022/06/22 02:50:23;;;;;;;1.20;1.10;;;21.20;99.90;;;;;;4994680;28;20889;-71
2022/06/22 02:52:59;;;;;;;0.40;0.30;;;21.20;99.90;;;;;;5009325;28;20400;-72
2022/06/22 02:55:30;;;;;;;3.10;0.80;;;21.20;99.90;;;;;;5010775;28;20404;-72
2022/06/22 02:57:59;;;;;;;0.40;0.30;;;21.20;99.90;;;;;;5009730;28;20975;-71
2022/06/22 03:00:38;;;;;;;0.40;0.30;;;21.20;99.90;;;;;;5010482;28;20401;-72
2022/06/22 03:03:08;;;;;;;0.43;0.30;;;21.10;99.90;;;;;;5010974;28;20412;-71
2022/06/22 03:06:27;;;;;;;0.40;0.20;;;21.10;99.90;;;;;;5010145;28;20459;-72
2022/06/22 03:09:07;;;;;;;0.40;0.37;;;21.10;99.90;;;;;;5003142;28;20459;-71
2022/06/22 03:11:42;;;;;;;0.70;0.70;;;21.10;99.90;;;;;;5010609;28;20443;-71
2022/06/22 03:14:32;;;;;;;0.70;0.70;;;21.20;99.90;;;;;;5010740;28;20384;-71
2022/06/22 03:17:04;;;;;;;0.40;0.30;;;21.20;99.90;;;;;;5010150;28;20869;-71
2022/06/22 03:19:45;;;;;;;0.50;0.50;;;21.20;99.90;;;;;;5010171;28;20399;-71
2022/06/22 03:22:20;;;;;;;0.40;0.30;;;21.20;99.90;;;;;;5010520;28;20423;-71
2022/06/22 03:25:13;;;;;;;0.70;0.60;;;21.20;99.90;;;;;;5009719;28;20391;-72
2022/06/22 03:31:42;;;;;;;0.50;0.50;;;21.30;99.90;;;;;;5334797;22;20431;-66
2022/06/22 03:34:15;;;;;;;0.40;0.20;;;21.40;99.90;;;;;;5028724;28;20472;-66
2022/06/22 03:36:50;;;;;;;0.40;0.20;;;21.50;99.90;;;;;;5027584;28;21022;-68
2022/06/22 03:39:19;;;;;;;0.50;0.50;;;21.40;99.90;;;;;;5029751;28;20398;-68
2022/06/22 03:42:03;;;;;;;0.40;0.30;;;21.30;99.90;;;;;;5029313;28;20557;-66
2022/06/22 03:45:00;;;;;;;0.40;0.30;;;21.10;99.90;;;;;;5029594;28;20384;-65
2022/06/22 03:47:36;;;;;;;0.80;0.80;;;20.80;99.90;;;;;;5005981;28;20450;-66
2022/06/22 03:50:24;;;;;;;0.70;0.70;;;20.50;99.90;;;;;;5029900;28;20422;-67
2022/06/22 03:53:01;;;;;;;0.50;0.50;;;20.30;99.90;;;;;;5032907;28;20502;-68
2022/06/22 03:55:35;;;;;;;0.40;0.30;;;19.90;99.90;;;;;;5029613;28;20467;-69
2022/06/22 03:58:03;;;;;;;0.40;0.30;;;19.70;99.90;;;;;;5032435;28;20375;-69
2022/06/22 04:00:31;;;;;;;0.40;0.25;;;19.60;99.90;;;;;;5032536;28;20767;-70
2022/06/22 04:02:57;;;;;;;0.40;0.30;;;19.50;99.90;;;;;;5033739;28;20409;-69
2022/06/22 04:05:28;;;;;;;0.50;0.50;;;19.50;99.90;;;;;;5033201;28;20466;-70
2022/06/22 04:07:54;;;;;;;1.20;1.10;;;19.60;99.90;;;;;;5033589;28;20390;-69
2022/06/22 04:10:47;;;;;;;0.40;0.30;;;19.60;99.90;;;;;;5032258;28;20453;-70
2022/06/22 04:13:36;;;;;;;0.40;0.30;;;19.50;99.90;;;;;;5027753;28;20387;-69
2022/06/22 04:16:13;;;;;;;0.40;0.30;;;19.40;99.90;;;;;;5006215;28;20447;-70
2022/06/22 04:18:53;;;;;;;0.40;0.20;;;19.50;99.90;;;;;;5022421;28;20395;-71
2022/06/22 04:21:30;;;;;;;0.40;0.20;;;19.40;99.90;;;;;;5033501;28;20539;-69
2022/06/22 04:24:00;;;;;;;0.40;0.20;;;19.50;99.90;;;;;;5013868;28;20381;-69
2022/06/22 04:26:38;;;;;;;0.40;0.20;;;19.50;99.90;;;;;;5027103;28;20395;-70
2022/06/22 04:29:19;;;;;;;0.40;0.20;;;19.50;99.90;;;;;;5033104;28;20399;-69
2022/06/22 04:32:09;;;;;;;0.80;0.80;;;19.30;99.90;;;;;;5040338;28;21037;-69
2022/06/22 04:34:51;;;;;;;0.40;0.30;;;19.50;99.90;;;;;;5072114;28;20932;-68
2022/06/22 04:37:31;;;;;;;0.50;0.50;;;19.60;99.90;;;;;;5073154;28;20384;-69
2022/06/22 04:40:21;;;;;;;1.00;0.88;;;19.70;99.90;;;;;;5072932;28;20439;-69
2022/06/22 04:42:56;;;;;;;1.10;1.10;;;19.60;99.90;;;;;;5072326;28;20427;-68
2022/06/22 04:45:34;;;;;;;0.40;0.22;;;19.70;99.90;;;;;;5073084;28;20832;-68
2022/06/22 04:48:20;;;;;;;0.40;0.30;;;19.60;99.90;;;;;;5072810;28;20371;-68
2022/06/22 04:50:48;;;;;;;0.40;0.30;;;19.60;99.90;;;;;;5071855;28;20399;-68
2022/06/22 04:53:33;;;;;;;0.40;0.20;;;19.50;99.90;;;;;;5072770;28;20504;-68
2022/06/22 04:56:03;;;;;;;0.57;0.57;;;19.60;99.90;;;;;;5073097;28;20477;-68
2022/06/22 04:58:37;;;;;;;0.40;0.30;;;19.60;99.90;;;;;;5072370;28;20423;-70
2022/06/22 05:01:05;;;;;;;0.40;0.30;;;19.60;99.90;;;;;;5071649;28;20776;-69
2022/06/22 05:03:32;;;;;;;0.60;0.50;;;19.60;99.90;;;;;;5071042;28;20407;-68
2022/06/22 05:06:02;;;;;;;0.40;0.30;;;19.60;99.90;;;;;;5072341;28;20402;-68
2022/06/22 05:08:38;;;;;;;0.40;0.22;;;19.60;99.90;;;;;;5071021;28;20406;-69
2022/06/22 05:11:20;;;;;;;0.50;0.50;;;19.60;99.90;;;;;;5072256;28;20915;-67
2022/06/22 05:13:48;;;;;;;0.50;0.45;;;19.60;99.90;;;;;;5061272;28;20684;-67
2022/06/22 05:16:18;;;;;;;0.50;0.50;;;19.70;99.90;;;;;;5072283;28;20445;-68
2022/06/22 05:18:45;;;;;;;0.40;0.40;;;19.70;99.90;;;;;;5071480;28;20392;-67
2022/06/22 05:21:35;;;;;;;0.50;0.50;;;19.80;99.90;;;;;;5054023;28;20408;-67
2022/06/22 05:24:10;;;;;;;0.40;0.30;;;19.60;99.90;;;;;;5060458;28;20396;-67
2022/06/22 05:26:36;;;;;;;0.40;0.30;;;19.70;99.90;;;;;;5067685;28;20423;-67
2022/06/22 05:29:18;;;;;;;0.40;0.30;;;19.70;99.90;;;;;;5071414;28;20963;-68
2022/06/22 05:31:49;;;;;;;2.10;1.20;;;19.80;99.90;;;;;;5070735;28;20529;-67
2022/06/22 05:34:28;;;;;;;0.70;0.70;;;19.80;99.90;;;;;;5071792;28;20402;-68
2022/06/22 05:36:59;;;;;;;0.40;0.30;;;19.70;99.90;;;;;;5071299;28;20876;-67
2022/06/22 05:39:25;;;;;;;0.40;0.40;;;19.80;99.90;;;;;;5071661;28;20402;-68
2022/06/22 05:41:51;;;;;;;0.63;0.63;;;19.70;99.90;;;;;;5070230;28;20387;-67
2022/06/22 05:44:19;;;;;;;0.80;0.80;;;19.70;99.90;;;;;;5071639;28;20391;-68
2022/06/22 05:46:54;;;;;;;0.40;0.28;;;19.70;99.90;;;;;;5070698;28;20384;-68
2022/06/22 05:49:26;;;;;;;0.40;0.30;;;19.70;99.90;;;;;;5071899;28;20391;-67
2022/06/22 05:52:11;;;;;;;0.40;0.30;;;19.70;99.90;;;;;;5065023;28;20393;-68
2022/06/22 05:54:52;;;;;;;0.40;0.30;;;19.70;99.90;;;;;;5066888;28;20436;-68
2022/06/22 05:57:36;;;;;;;0.50;0.50;;;19.70;99.90;;;;;;5067824;28;20434;-68
2022/06/22 06:00:13;;;;;;;0.40;0.30;;;19.70;99.90;;;;;;5070752;28;20418;-68
2022/06/22 06:03:11;;;;;;;0.40;0.30;;;19.80;99.90;;;;;;5066207;28;20427;-69
2022/06/22 06:05:41;;;;;;;0.90;0.90;;;19.70;99.90;;;;;;5064760;28;20404;-68
2022/06/22 06:08:15;;;;;;;0.40;0.30;;;19.80;99.90;;;;;;5071262;28;20453;-69
2022/06/22 06:10:43;;;;;;;0.40;0.30;;;19.80;99.90;;;;;;5068443;28;20435;-68
2022/06/22 06:13:37;;;;;;;0.40;0.30;;;19.70;99.90;;;;;;5060116;28;20381;-68
2022/06/22 06:16:19;;;;;;;0.40;0.30;;;19.80;99.90;;;;;;5050947;28;20428;-68
2022/06/22 06:18:46;;;;;;;0.70;0.70;;;19.80;99.90;;;;;;5069250;28;20388;-69
2022/06/22 06:21:15;;;;;;;0.40;0.30;;;19.90;99.90;;;;;;5068955;28;20412;-69
2022/06/22 06:23:50;;;;;;;0.40;0.30;;;19.80;99.90;;;;;;5070080;28;20395;-69
2022/06/22 06:29:53;;;;;;;0.80;0.70;;;19.90;99.90;;;;;;5057807;28;20468;-69
2022/06/22 06:32:21;;;;;;;0.40;0.40;;;20.00;99.90;;;;;;5069562;28;20415;-69
2022/06/22 06:34:59;;;;;;;0.50;0.50;;;20.20;99.90;;;;;;5069597;28;20407;-69
2022/06/22 06:37:51;;;;;;;0.40;0.30;;;20.40;99.90;;;;;;5070194;28;20790;-69
2022/06/22 06:40:32;;;;;;;0.40;0.30;;;20.30;99.90;;;;;;5070601;28;20809;-69
2022/06/22 06:43:27;;;;;;;0.40;0.20;;;20.50;99.90;;;;;;5057405;28;20962;-70
2022/06/22 06:45:53;;;;;;;0.40;0.20;;;20.50;99.90;;;;;;5070103;28;20465;-70
2022/06/22 06:48:24;;;;;;;0.90;0.90;;;20.50;99.90;;;;;;5067260;28;20422;-70
2022/06/22 06:50:54;;;;;;;0.40;0.30;;;20.50;99.90;;;;;;5058147;28;20761;-70
2022/06/22 06:53:51;;;;;;;0.40;0.20;;;20.50;99.90;;;;;;5063251;28;20437;-71
2022/06/22 06:56:36;;;;;;;0.40;0.30;;;20.70;99.90;;;;;;5054301;28;20394;-71
2022/06/22 06:59:07;;;;;;;0.40;0.30;;;20.70;99.90;;;;;;5070455;28;20870;-71
2022/06/22 07:01:36;;;;;;;0.40;0.30;;;20.70;99.90;;;;;;5060150;28;20418;-70
2022/06/22 07:04:12;;;;;;;0.40;0.40;;;20.80;99.90;;;;;;5064696;28;20395;-70
2022/06/22 07:06:39;;;;;;;0.70;0.50;;;20.70;99.90;;;;;;5051182;28;20410;-70
2022/06/22 07:09:21;;;;;;;0.40;0.30;;;20.80;99.90;;;;;;5064968;28;20400;-70
2022/06/22 07:11:55;;;;;;;0.40;0.20;;;20.80;99.90;;;;;;5068986;28;20426;-70
2022/06/22 07:14:34;;;;;;;2.55;0.85;;;20.80;99.90;;;;;;5064369;28;20452;-70
2022/06/22 07:17:06;;;;;;;0.40;0.30;;;20.80;99.90;;;;;;5057463;28;20400;-69
2022/06/22 07:19:40;;;;;;;0.40;0.30;;;20.80;99.90;;;;;;5069811;28;20396;-69
2022/06/22 07:22:25;;;;;;;0.40;0.20;;;20.80;99.90;;;;;;5069946;28;20517;-69
2022/06/22 07:25:00;;;;;;;0.40;0.30;;;20.80;99.90;;;;;;5069678;28;20470;-69
2022/06/22 07:27:37;;;;;;;0.40;0.30;;;20.80;99.90;;;;;;5068205;28;20396;-69
2022/06/22 07:30:36;;;;;;;0.40;0.20;;;20.90;99.90;;;;;;5054348;28;20432;-69
2022/06/22 07:33:07;;;;;;;0.40;0.30;;;21.00;99.90;;;;;;5069776;28;20411;-69
2022/06/22 07:36:07;;;;;;;0.50;0.50;;;21.00;99.90;;;;;;5073596;28;20402;-70
2022/06/22 07:39:12;;;;;;;0.40;0.30;;;20.90;99.90;;;;;;5065088;28;20884;-70
2022/06/22 07:41:38;;;;;;;0.40;0.30;;;21.10;99.90;;;;;;5071733;28;20431;-71
2022/06/22 07:44:29;;;;;;;0.40;0.20;;;21.30;99.90;;;;;;5073618;28;20864;-70
2022/06/22 07:47:26;;;;;;;0.40;0.30;;;21.40;99.90;;;;;;5052666;28;20395;-70
2022/06/22 07:50:05;;;;;;;0.40;0.30;;;21.40;99.90;;;;;;5061866;28;20435;-70
2022/06/22 07:52:40;;;;;;;0.40;0.20;;;21.50;99.90;;;;;;5070662;28;20401;-71
2022/06/22 07:55:31;;;;;;;1.30;1.00;;;21.60;99.90;;;;;;5066752;28;20827;-70
2022/06/22 07:58:17;;;;;;;0.40;0.30;;;21.40;99.90;;;;;;5059211;28;20405;-71
2022/06/22 08:00:46;;;;;;;0.40;0.30;;;21.60;99.90;;;;;;5070479;28;20428;-70
2022/06/22 08:03:23;;;;;;;0.40;0.40;;;21.60;99.90;;;;;;5060224;28;20477;-70
2022/06/22 08:05:53;;;;;;;0.40;0.20;;;21.50;99.90;;;;;;5053229;28;20477;-74
2022/06/22 08:08:52;;;;;;;0.40;0.22;;;21.40;99.90;;;;;;5053778;28;20381;-71
2022/06/22 08:11:37;;;;;;;0.40;0.20;;;21.60;99.90;;;;;;5038238;28;20401;-71
2022/06/22 08:14:30;;;;;;;0.50;0.50;;;21.60;99.90;;;;;;5052893;28;20407;-71
2022/06/22 08:16:59;;;;;;;1.60;1.30;;;21.40;99.90;;;;;;5052770;28;20373;-71
2022/06/22 08:19:28;;;;;;;0.40;0.40;;;21.40;99.90;;;;;;5058648;28;20947;-70
2022/06/22 08:21:58;;;;;;;0.40;0.30;;;21.40;99.90;;;;;;5053240;28;20849;-70
2022/06/22 08:24:26;;;;;;;0.40;0.30;;;21.20;99.90;;;;;;5061266;28;20385;-70
2022/06/22 08:26:54;;;;;;;2.30;0.80;;;21.20;99.90;;;;;;5062427;28;20400;-70
2022/06/22 08:29:24;;;;;;;0.40;0.30;;;21.20;99.90;;;;;;5064090;28;20867;-69
2022/06/22 08:32:08;;;;;;;0.40;0.30;;;21.20;99.90;;;;;;5059446;28;20412;-69
2022/06/22 08:34:39;;;;;;;0.50;0.50;;;21.10;99.90;;;;;;5069267;28;20396;-69
2022/06/22 08:37:13;;;;;;;0.45;0.43;;;21.10;99.90;;;;;;5065874;28;20460;-69
2022/06/22 08:40:00;;;;;;;0.40;0.40;;;21.20;99.90;;;;;;5055836;28;20468;-70
2022/06/22 08:42:38;;;;;;;0.40;0.30;;;21.10;99.90;;;;;;5055050;28;20515;-70
2022/06/22 08:45:27;;;;;;;0.40;0.20;;;21.20;99.90;;;;;;5063995;28;20464;-69
2022/06/22 08:48:15;;;;;;;0.40;0.20;;;21.20;99.90;;;;;;5069751;28;20399;-69
2022/06/22 08:50:53;;;;;;;0.40;0.40;;;21.30;99.90;;;;;;5068286;28;20935;-69
2022/06/22 08:53:19;;;;;;;1.20;0.80;;;21.30;99.90;;;;;;5072081;28;20399;-69
2022/06/22 08:56:03;;;;;;;0.40;0.30;;;21.40;99.90;;;;;;5071587;28;20469;-68
2022/06/22 08:58:52;;;;;;;0.40;0.20;;;21.40;99.90;;;;;;5065419;28;20453;-69
2022/06/22 09:01:36;;;;;;;0.40;0.20;;;21.50;99.90;;;;;;5066244;28;20860;-69
2022/06/22 09:04:04;;;;;;;0.40;0.20;;;21.40;99.90;;;;;;5070454;28;20414;-68
2022/06/22 09:06:30;;;;;;;0.40;0.28;;;21.50;99.90;;;;;;5072367;28;20490;-69
2022/06/22 09:09:31;;;;;;;0.40;0.40;;;21.40;99.90;;;;;;5070712;28;20415;-68
2022/06/22 09:12:10;;;;;;;0.60;0.50;;;21.40;99.90;;;;;;5051795;28;20960;-69
2022/06/22 09:14:57;;;;;;;0.40;0.30;;;21.40;99.90;;;;;;5054357;28;20729;-68
2022/06/22 09:17:41;;;;;;;0.40;0.20;;;21.30;99.90;;;;;;5072488;28;20384;-68
2022/06/22 09:20:29;;;;;;;0.40;0.20;;;21.30;99.90;;;;;;5071623;28;20434;-68
2022/06/22 09:22:58;;;;;;;0.90;0.40;;;21.40;99.90;;;;;;5070913;28;20399;-68
2022/06/22 09:25:36;;;;;;;0.40;0.20;;;21.40;99.90;;;;;;5072947;28;20767;-68
2022/06/22 09:28:17;;;;;;;0.40;0.20;;;21.50;99.90;;;;;;5070963;28;20392;-69
2022/06/22 09:30:49;;;;;;;0.40;0.20;;;21.50;99.90;;;;;;5071909;28;20387;-68
2022/06/22 09:33:52;;;;;;;0.40;0.28;;;21.60;99.90;;;;;;5071806;28;20415;-68
2022/06/22 09:36:41;;;;;;;1.30;1.20;;;21.60;99.90;;;;;;5072013;28;20426;-68
2022/06/22 09:39:29;;;;;;;0.40;0.20;;;21.60;99.90;;;;;;5071076;28;20920;-68
2022/06/22 09:42:10;;;;;;;3.30;0.90;;;21.60;99.90;;;;;;5071292;28;20384;-68
2022/06/22 09:45:03;;;;;;;1.60;0.60;;;21.70;99.90;;;;;;5051708;28;20939;-68
2022/06/22 09:48:16;;;;;;;0.40;0.20;;;21.80;99.90;;;;;;5069398;28;20916;-69
2022/06/22 09:50:50;;;;;;;0.40;0.30;;;21.80;99.90;;;;;;5048265;28;20941;-68
2022/06/22 09:53:37;;;;;;;0.40;0.20;;;21.80;99.90;;;;;;5071394;28;20405;-69
2022/06/22 09:56:27;;;;;;;0.40;0.20;;;21.90;99.90;;;;;;5068264;28;20394;-69
2022/06/22 09:59:17;;;;;;;0.40;0.30;;;22.00;99.90;;;;;;5063616;28;20399;-69
2022/06/22 10:02:03;;;;;;;0.43;0.32;;;22.20;99.90;;;;;;5064898;28;20461;-69
2022/06/22 10:05:02;;;;;;;1.70;1.20;;;22.20;99.90;;;;;;5052409;28;20389;-68
2022/06/22 10:07:33;;;;;;;0.52;0.47;;;22.20;99.90;;;;;;5064764;28;20396;-68
2022/06/22 10:10:21;;;;;;;0.40;0.20;;;22.20;99.90;;;;;;5054075;28;20392;-68
2022/06/22 10:12:55;;;;;;;0.40;0.30;;;22.40;99.90;;;;;;5068617;28;20403;-68
2022/06/22 10:15:49;;;;;;;0.40;0.30;;;22.40;99.90;;;;;;5074445;28;20390;-67
2022/06/22 10:18:42;;;;;;;0.40;0.20;;;22.40;99.90;;;;;;5049559;28;20864;-67
2022/06/22 10:21:52;;;;;;;0.40;0.20;;;22.40;99.90;;;;;;5068703;28;21031;-67
2022/06/22 10:24:47;;;;;;;1.00;0.80;;;22.30;99.90;;;;;;5069220;28;20405;-67
2022/06/22 10:27:53;;;;;;;0.40;0.20;;;22.30;99.90;;;;;;5066512;28;20377;-67
2022/06/22 10:30:40;;;;;;;18.10;16.25;;;22.30;99.90;;;;;;5064804;28;20882;-67
2022/06/22 10:33:27;;;;;;;0.40;0.30;;;22.50;99.90;;;;;;5072153;28;20409;-67
2022/06/22 10:36:11;;;;;;;0.40;0.30;;;22.70;99.90;;;;;;5066236;28;20492;-67
2022/06/22 10:39:15;;;;;;;0.40;0.20;;;22.80;99.90;;;;;;5056593;28;20392;-68
2022/06/22 10:45:15;;;;;;;1.10;0.70;;;23.10;99.90;;;;;;5050242;28;20384;-68
2022/06/22 10:48:01;;;;;;;1.40;1.30;;;23.20;99.90;;;;;;5050363;28;20416;-67
2022/06/22 10:51:05;;;;;;;0.40;0.20;;;23.20;99.90;;;;;;5050162;28;20405;-67
2022/06/22 10:53:33;;;;;;;0.40;0.20;;;23.30;99.90;;;;;;5066953;28;20427;-67
2022/06/22 10:56:02;;;;;;;0.40;0.20;;;23.30;99.90;;;;;;5069679;28;20384;-67
2022/06/22 10:58:43;;;;;;;0.47;0.40;;;23.40;99.90;;;;;;5069133;28;20851;-67
2022/06/22 11:01:39;;;;;;;0.40;0.20;;;23.50;99.90;;;;;;5068960;28;20417;-67
2022/06/22 11:04:47;;;;;;;0.50;0.50;;;23.60;99.90;;;;;;5070526;28;20394;-67
2022/06/22 11:07:53;;;;;;;1.60;1.50;;;23.50;99.90;;;;;;5054576;28;20429;-67
2022/06/22 11:10:39;;;;;;;0.40;0.20;;;23.60;99.90;;;;;;5076703;28;20387;-67
2022/06/22 11:13:13;;;;;;;0.40;0.20;;;23.70;99.90;;;;;;5075937;28;20370;-67
2022/06/22 11:15:48;;;;;;;0.40;0.30;;;23.70;99.90;;;;;;5077768;28;20393;-66
2022/06/22 11:18:42;;;;;;;0.40;0.20;;;23.80;99.90;;;;;;5076067;28;20406;-67
2022/06/22 11:21:08;;;;;;;0.40;0.20;;;23.90;99.90;;;;;;5075437;28;20785;-66
2022/06/22 11:23:39;;;;;;;0.40;0.22;;;24.30;99.90;;;;;;5068948;28;20428;-66
2022/06/22 11:32:24;;;;;;;0.60;0.50;;;24.80;99.90;;;;;;5069781;28;20427;-67
2022/06/22 11:35:06;;;;;;;0.40;0.20;;;25.30;99.90;;;;;;5080837;28;20403;-68
2022/06/22 11:37:42;;;;;;;0.50;0.50;;;25.60;99.90;;;;;;5071065;28;21203;-68
2022/06/22 11:40:38;;;;;;;0.40;0.30;;;25.20;99.90;;;;;;5067473;28;20412;-67
2022/06/22 11:43:34;;;;;;;0.70;0.60;;;25.50;99.90;;;;;;5082669;28;20390;-69
2022/06/22 11:46:39;;;;;;;0.40;0.20;;;25.00;99.90;;;;;;5087431;28;20794;-68
2022/06/22 11:49:36;;;;;;;0.60;0.60;;;25.00;99.90;;;;;;5079240;28;21030;-67
2022/06/22 11:52:38;;;;;;;1.13;0.75;;;25.00;99.90;;;;;;5070254;28;20382;-67
2022/06/22 11:55:26;;;;;;;0.40;0.32;;;24.60;99.90;;;;;;5077914;28;21285;-68
2022/06/22 11:58:21;;;;;;;0.40;0.20;;;24.70;99.90;;;;;;5072356;28;20397;-67
2022/06/22 12:00:52;;;;;;;0.43;0.33;;;24.40;99.90;;;;;;5062571;28;21149;-67
2022/06/22 12:03:36;;;;;;;0.93;0.93;;;24.20;99.90;;;;;;5062390;28;20450;-67
2022/06/22 12:06:23;;;;;;;1.25;0.65;;;24.10;99.90;;;;;;5062154;28;20824;-67
2022/06/22 12:09:07;;;;;;;0.40;0.20;;;24.00;99.90;;;;;;5060982;28;20441;-67
2022/06/22 12:11:36;;;;;;;0.40;0.20;;;24.20;99.90;;;;;;5080490;28;20861;-67
2022/06/22 12:17:55;;;;;;;0.40;0.30;;;23.80;99.90;;;;;;5014925;28;20984;-68
2022/06/22 12:20:29;;;;;;;0.40;0.30;;;24.00;99.90;;;;;;5078447;28;20439;-67
2022/06/22 12:23:19;;;;;;;0.40;0.20;;;23.80;99.90;;;;;;5063597;28;20398;-68
2022/06/22 12:26:20;;;;;;;0.40;0.32;;;23.70;99.90;;;;;;5072964;28;20746;-68
2022/06/22 12:29:19;;;;;;;0.40;0.20;;;23.60;99.90;;;;;;5066677;28;20423;-67
2022/06/22 12:32:13;;;;;;;0.40;0.30;;;23.60;99.90;;;;;;5019787;28;20446;-68
2022/06/22 12:34:48;;;;;;;0.40;0.20;;;23.50;99.90;;;;;;5070708;28;20400;-68
2022/06/22 12:37:29;;;;;;;0.50;0.50;;;23.40;99.90;;;;;;5071020;28;20387;-68
2022/06/22 12:39:57;;;;;;;0.40;0.20;;;23.40;99.90;;;;;;5070617;28;20910;-68
2022/06/22 12:42:23;;;;;;;0.40;0.22;;;23.40;99.90;;;;;;5069355;28;20407;-68
2022/06/22 12:45:03;;;;;;;0.50;0.50;;;23.40;99.90;;;;;;5065285;28;20822;-67
2022/06/22 12:48:02;;;;;;;0.40;0.20;;;23.40;99.90;;;;;;5072959;28;20462;-67
2022/06/22 12:50:54;;;;;;;0.40;0.20;;;23.50;99.90;;;;;;5071015;28;20404;-67
2022/06/22 12:53:26;;;;;;;0.40;0.20;;;23.50;99.90;;;;;;5075849;28;20408;-68
2022/06/22 12:56:02;;;;;;;0.40;0.40;;;23.50;99.90;;;;;;5069115;28;20482;-67
2022/06/22 12:58:44;;;;;;;0.40;0.30;;;23.60;99.90;;;;;;5062849;28;20473;-66
2022/06/22 13:01:09;;;;;;;0.50;0.40;;;23.70;99.90;;;;;;5065946;28;20463;-66
2022/06/22 13:03:42;;;;;;;1.35;0.75;;;23.70;99.90;;;;;;5070087;28;20404;-66
2022/06/22 13:06:08;;;;;;;0.82;0.82;;;23.90;99.90;;;;;;5073545;28;20398;-66
2022/06/22 13:08:35;;;;;;;0.40;0.40;;;24.00;99.90;;;;;;5067459;28;20394;-66
2022/06/22 13:11:07;;;;;;;0.50;0.50;;;24.10;99.90;;;;;;5069960;28;20392;-66
2022/06/22 13:13:57;;;;;;;0.40;0.20;;;24.40;99.90;;;;;;5070674;28;20372;-65
2022/06/22 13:16:36;;;;;;;0.40;0.20;;;24.70;99.90;;;;;;5072139;28;20387;-66
2022/06/22 13:19:45;;;;;;;0.50;0.40;;;24.80;99.90;;;;;;5071261;28;20456;-66
2022/06/22 13:22:38;;;;;;;0.40;0.30;;;24.90;99.90;;;;;;5009012;28;20405;-66
2022/06/22 13:25:30;;;;;;;0.40;0.20;;;24.80;99.90;;;;;;5009339;28;20480;-66
2022/06/22 13:28:08;;;;;;;0.40;0.30;;;24.70;99.90;;;;;;5062864;28;20407;-66
2022/06/22 13:31:01;;;;;;;0.40;0.20;;;24.60;99.90;;;;;;5071780;28;20384;-65
2022/06/22 13:33:40;;;;;;;0.50;0.50;;;24.60;99.90;;;;;;5071575;28;20423;-66
2022/06/22 13:36:24;;;;;;;0.55;0.40;;;24.50;99.90;;;;;;5071387;28;20426;-65
2022/06/22 13:39:03;;;;;;;0.40;0.30;;;24.40;99.90;;;;;;5071374;28;20391;-66
2022/06/22 13:41:41;;;;;;;0.40;0.20;;;24.30;99.90;;;;;;5071736;28;20752;-66
2022/06/22 13:44:15;;;;;;;0.60;0.40;;;24.20;99.90;;;;;;5070774;28;20383;-66
2022/06/22 13:47:12;;;;;;;0.40;0.30;;;24.10;99.90;;;;;;5071570;28;20380;-66
2022/06/22 13:50:14;;;;;;;0.40;0.22;;;24.10;99.90;;;;;;5069877;28;20411;-66
2022/06/22 13:52:44;;;;;;;0.40;0.30;;;24.00;99.90;;;;;;5071002;28;20391;-64
2022/06/22 13:55:12;;;;;;;0.40;0.20;;;24.00;99.90;;;;;;5070446;28;20469;-65
2022/06/22 13:57:44;;;;;;;0.40;0.20;;;23.90;99.90;;;;;;5066178;28;20391;-64
2022/06/22 14:00:31;;;;;;;0.40;0.20;;;23.70;99.90;;;;;;5070611;28;20512;-65
2022/06/22 14:03:13;;;;;;;0.40;0.30;;;23.70;99.90;;;;;;5070629;28;20752;-64
2022/06/22 14:05:47;;;;;;;0.40;0.20;;;23.60;99.90;;;;;;5071408;28;20380;-65
2022/06/22 14:08:17;;;;;;;0.40;0.20;;;23.60;99.90;;;;;;5070549;28;20494;-65
2022/06/22 14:10:51;;;;;;;0.40;0.20;;;23.50;99.90;;;;;;5071577;28;20453;-65
2022/06/22 14:13:35;;;;;;;2.42;0.68;;;23.50;99.90;;;;;;5071136;28;20374;-65
2022/06/22 14:16:04;;;;;;;0.40;0.30;;;23.40;99.90;;;;;;5070511;28;20414;-65
2022/06/22 14:18:39;;;;;;;0.40;0.30;;;23.40;99.90;;;;;;5071202;28;20732;-65